sensor_id;sensor_type;location;lat;lon;timestamp;P1;durP1;ratioP1;P2;durP2;ratioP2
9449;SDS011;4763;48.370;10.874;2023-07-28T00:02:05;4.60;;;2.80;;
9449;SDS011;4763;48.370;10.874;2023-07-28T00:04:34;3.43;;;2.97;;
9449;SDS011;4763;48.370;10.874;2023-07-28T00:07:01;4.27;;;2.70;;
9449;SDS011;4763;48.370;10.874;2023-07-28T00:09:28;3.07;;;2.57;;
9449;SDS011;4763;48.370;10.874;2023-07-28T00:11:55;3.60;;;3.10;;
9449;SDS011;4763;48.370;10.874;2023-07-28T00:14:24;5.50;;;3.03;;
9449;SDS011;4763;48.370;10.874;2023-07-28T00:16:52;6.17;;;3.00;;
9449;SDS011;4763;48.370;10.874;2023-07-28T00:19:19;4.70;;;3.23;;
9449;SDS011;4763;48.370;10.874;2023-07-28T00:21:47;5.60;;;3.03;;
9449;SDS011;4763;48.370;10.874;2023-07-28T00:24:13;3.70;;;2.70;;
9449;SDS011;4763;48.370;10.874;2023-07-28T00:26:40;4.67;;;3.13;;
9449;SDS011;4763;48.370;10.874;2023-07-28T00:29:07;3.10;;;2.80;;
9449;SDS011;4763;48.370;10.874;2023-07-28T00:31:35;2.80;;;2.47;;
9449;SDS011;4763;48.370;10.874;2023-07-28T00:34:02;3.20;;;2.90;;
9449;SDS011;4763;48.370;10.874;2023-07-28T00:36:29;3.67;;;2.77;;
9449;SDS011;4763;48.370;10.874;2023-07-28T00:38:58;3.57;;;2.90;;
9449;SDS011;4763;48.370;10.874;2023-07-28T00:41:24;4.07;;;3.03;;
9449;SDS011;4763;48.370;10.874;2023-07-28T00:43:53;5.37;;;2.77;;
9449;SDS011;4763;48.370;10.874;2023-07-28T00:46:20;3.87;;;3.23;;
9449;SDS011;4763;48.370;10.874;2023-07-28T00:48:48;4.03;;;3.03;;
9449;SDS011;4763;48.370;10.874;2023-07-28T00:51:15;4.77;;;3.50;;
9449;SDS011;4763;48.370;10.874;2023-07-28T00:53:44;4.80;;;3.03;;
9449;SDS011;4763;48.370;10.874;2023-07-28T00:56:11;4.97;;;3.43;;
9449;SDS011;4763;48.370;10.874;2023-07-28T00:58:38;4.03;;;3.13;;
9449;SDS011;4763;48.370;10.874;2023-07-28T01:01:05;4.47;;;3.47;;
9449;SDS011;4763;48.370;10.874;2023-07-28T01:03:32;4.20;;;3.27;;
9449;SDS011;4763;48.370;10.874;2023-07-28T01:06:03;3.50;;;2.80;;
9449;SDS011;4763;48.370;10.874;2023-07-28T01:08:42;4.60;;;3.50;;
9449;SDS011;4763;48.370;10.874;2023-07-28T01:11:14;4.83;;;3.03;;
9449;SDS011;4763;48.370;10.874;2023-07-28T01:13:40;3.90;;;3.40;;
9449;SDS011;4763;48.370;10.874;2023-07-28T01:16:07;4.83;;;3.40;;
9449;SDS011;4763;48.370;10.874;2023-07-28T01:18:35;4.67;;;3.20;;
9449;SDS011;4763;48.370;10.874;2023-07-28T01:21:03;4.13;;;3.47;;
9449;SDS011;4763;48.370;10.874;2023-07-28T01:23:37;4.70;;;3.30;;
9449;SDS011;4763;48.370;10.874;2023-07-28T01:26:08;7.03;;;3.17;;
9449;SDS011;4763;48.370;10.874;2023-07-28T01:28:37;7.27;;;2.93;;
9449;SDS011;4763;48.370;10.874;2023-07-28T01:31:06;4.30;;;3.23;;
9449;SDS011;4763;48.370;10.874;2023-07-28T01:33:34;3.77;;;3.13;;
9449;SDS011;4763;48.370;10.874;2023-07-28T01:36:01;4.80;;;3.40;;
9449;SDS011;4763;48.370;10.874;2023-07-28T01:38:28;4.87;;;3.10;;
9449;SDS011;4763;48.370;10.874;2023-07-28T01:40:55;3.83;;;3.00;;
9449;SDS011;4763;48.370;10.874;2023-07-28T01:43:22;3.97;;;3.33;;
9449;SDS011;4763;48.370;10.874;2023-07-28T01:45:50;5.37;;;3.40;;
9449;SDS011;4763;48.370;10.874;2023-07-28T01:48:16;3.87;;;3.40;;
9449;SDS011;4763;48.370;10.874;2023-07-28T01:50:43;6.37;;;3.30;;
9449;SDS011;4763;48.370;10.874;2023-07-28T01:53:10;7.23;;;3.07;;
9449;SDS011;4763;48.370;10.874;2023-07-28T01:55:37;3.83;;;2.80;;
9449;SDS011;4763;48.370;10.874;2023-07-28T01:58:04;4.87;;;3.00;;
9449;SDS011;4763;48.370;10.874;2023-07-28T02:00:30;4.93;;;3.27;;
9449;SDS011;4763;48.370;10.874;2023-07-28T02:02:58;5.47;;;3.40;;
9449;SDS011;4763;48.370;10.874;2023-07-28T02:05:27;5.90;;;3.00;;
9449;SDS011;4763;48.370;10.874;2023-07-28T02:07:53;4.03;;;3.00;;
9449;SDS011;4763;48.370;10.874;2023-07-28T02:10:21;4.50;;;3.30;;
9449;SDS011;4763;48.370;10.874;2023-07-28T02:12:48;3.50;;;2.97;;
9449;SDS011;4763;48.370;10.874;2023-07-28T02:15:15;3.57;;;3.03;;
9449;SDS011;4763;48.370;10.874;2023-07-28T02:17:42;5.57;;;3.00;;
9449;SDS011;4763;48.370;10.874;2023-07-28T02:20:10;3.60;;;2.73;;
9449;SDS011;4763;48.370;10.874;2023-07-28T02:22:38;4.73;;;2.70;;
9449;SDS011;4763;48.370;10.874;2023-07-28T02:25:05;5.13;;;3.27;;
9449;SDS011;4763;48.370;10.874;2023-07-28T02:27:32;3.03;;;2.70;;
9449;SDS011;4763;48.370;10.874;2023-07-28T02:29:59;3.77;;;2.83;;
9449;SDS011;4763;48.370;10.874;2023-07-28T02:32:26;5.50;;;3.00;;
9449;SDS011;4763;48.370;10.874;2023-07-28T02:34:53;7.43;;;3.23;;
9449;SDS011;4763;48.370;10.874;2023-07-28T02:37:21;8.47;;;3.63;;
9449;SDS011;4763;48.370;10.874;2023-07-28T02:39:48;5.63;;;2.80;;
9449;SDS011;4763;48.370;10.874;2023-07-28T02:42:15;4.80;;;2.90;;
9449;SDS011;4763;48.370;10.874;2023-07-28T02:44:42;8.63;;;3.07;;
9449;SDS011;4763;48.370;10.874;2023-07-28T02:47:08;7.93;;;3.03;;
9449;SDS011;4763;48.370;10.874;2023-07-28T02:49:35;3.63;;;3.17;;
9449;SDS011;4763;48.370;10.874;2023-07-28T02:52:02;3.30;;;2.53;;
9449;SDS011;4763;48.370;10.874;2023-07-28T02:54:30;3.27;;;2.80;;
9449;SDS011;4763;48.370;10.874;2023-07-28T02:56:57;5.47;;;2.83;;
9449;SDS011;4763;48.370;10.874;2023-07-28T02:59:24;5.83;;;3.53;;
9449;SDS011;4763;48.370;10.874;2023-07-28T03:01:51;4.13;;;2.60;;
9449;SDS011;4763;48.370;10.874;2023-07-28T03:04:17;4.87;;;3.13;;
9449;SDS011;4763;48.370;10.874;2023-07-28T03:06:45;4.10;;;2.57;;
9449;SDS011;4763;48.370;10.874;2023-07-28T03:09:12;4.23;;;3.20;;
9449;SDS011;4763;48.370;10.874;2023-07-28T03:11:41;7.07;;;3.20;;
9449;SDS011;4763;48.370;10.874;2023-07-28T03:14:08;5.63;;;3.67;;
9449;SDS011;4763;48.370;10.874;2023-07-28T03:16:35;7.23;;;3.67;;
9449;SDS011;4763;48.370;10.874;2023-07-28T03:19:01;3.83;;;2.90;;
9449;SDS011;4763;48.370;10.874;2023-07-28T03:21:29;6.17;;;3.20;;
9449;SDS011;4763;48.370;10.874;2023-07-28T03:23:56;6.07;;;3.10;;
9449;SDS011;4763;48.370;10.874;2023-07-28T03:26:23;3.70;;;3.03;;
9449;SDS011;4763;48.370;10.874;2023-07-28T03:28:51;4.07;;;3.43;;
9449;SDS011;4763;48.370;10.874;2023-07-28T03:31:18;5.53;;;2.93;;
9449;SDS011;4763;48.370;10.874;2023-07-28T03:33:45;3.63;;;3.03;;
9449;SDS011;4763;48.370;10.874;2023-07-28T03:36:11;3.47;;;2.90;;
9449;SDS011;4763;48.370;10.874;2023-07-28T03:38:38;4.70;;;2.83;;
9449;SDS011;4763;48.370;10.874;2023-07-28T03:41:05;5.77;;;3.10;;
9449;SDS011;4763;48.370;10.874;2023-07-28T03:43:32;4.00;;;3.27;;
9449;SDS011;4763;48.370;10.874;2023-07-28T03:46:00;4.27;;;3.00;;
9449;SDS011;4763;48.370;10.874;2023-07-28T03:48:27;7.20;;;3.20;;
9449;SDS011;4763;48.370;10.874;2023-07-28T03:50:54;4.17;;;3.13;;
9449;SDS011;4763;48.370;10.874;2023-07-28T03:53:21;4.93;;;3.73;;
9449;SDS011;4763;48.370;10.874;2023-07-28T03:55:47;5.80;;;3.13;;
9449;SDS011;4763;48.370;10.874;2023-07-28T03:58:14;5.23;;;3.20;;
9449;SDS011;4763;48.370;10.874;2023-07-28T04:00:41;4.03;;;3.00;;
9449;SDS011;4763;48.370;10.874;2023-07-28T04:03:09;4.20;;;3.10;;
9449;SDS011;4763;48.370;10.874;2023-07-28T04:05:36;5.83;;;2.80;;
9449;SDS011;4763;48.370;10.874;2023-07-28T04:08:03;3.30;;;3.00;;
9449;SDS011;4763;48.370;10.874;2023-07-28T04:10:30;4.47;;;3.00;;
9449;SDS011;4763;48.370;10.874;2023-07-28T04:12:57;3.63;;;2.90;;
9449;SDS011;4763;48.370;10.874;2023-07-28T04:15:24;5.30;;;3.00;;
9449;SDS011;4763;48.370;10.874;2023-07-28T04:17:50;4.00;;;2.80;;
9449;SDS011;4763;48.370;10.874;2023-07-28T04:20:18;4.57;;;3.00;;
9449;SDS011;4763;48.370;10.874;2023-07-28T04:22:45;3.23;;;2.90;;
9449;SDS011;4763;48.370;10.874;2023-07-28T04:25:12;3.40;;;2.77;;
9449;SDS011;4763;48.370;10.874;2023-07-28T04:27:39;4.67;;;2.83;;
9449;SDS011;4763;48.370;10.874;2023-07-28T04:30:06;3.83;;;2.97;;
9449;SDS011;4763;48.370;10.874;2023-07-28T04:32:33;3.37;;;2.67;;
9449;SDS011;4763;48.370;10.874;2023-07-28T04:35:02;4.40;;;3.13;;
9449;SDS011;4763;48.370;10.874;2023-07-28T04:37:31;3.00;;;2.63;;
9449;SDS011;4763;48.370;10.874;2023-07-28T04:39:58;3.43;;;2.90;;
9449;SDS011;4763;48.370;10.874;2023-07-28T04:42:25;4.40;;;3.27;;
9449;SDS011;4763;48.370;10.874;2023-07-28T04:44:51;6.63;;;3.30;;
9449;SDS011;4763;48.370;10.874;2023-07-28T04:47:18;5.20;;;3.23;;
9449;SDS011;4763;48.370;10.874;2023-07-28T04:49:45;5.27;;;3.00;;
9449;SDS011;4763;48.370;10.874;2023-07-28T04:52:12;3.90;;;3.07;;
9449;SDS011;4763;48.370;10.874;2023-07-28T04:54:40;3.83;;;3.03;;
9449;SDS011;4763;48.370;10.874;2023-07-28T04:57:07;5.93;;;3.23;;
9449;SDS011;4763;48.370;10.874;2023-07-28T04:59:34;5.37;;;3.43;;
9449;SDS011;4763;48.370;10.874;2023-07-28T05:02:00;10.20;;;3.47;;
9449;SDS011;4763;48.370;10.874;2023-07-28T05:04:27;3.90;;;3.37;;
9449;SDS011;4763;48.370;10.874;2023-07-28T05:06:54;8.27;;;3.47;;
9449;SDS011;4763;48.370;10.874;2023-07-28T05:09:21;7.40;;;3.43;;
9449;SDS011;4763;48.370;10.874;2023-07-28T05:11:49;4.87;;;2.83;;
9449;SDS011;4763;48.370;10.874;2023-07-28T05:14:16;4.97;;;3.30;;
9449;SDS011;4763;48.370;10.874;2023-07-28T05:16:42;4.47;;;3.63;;
9449;SDS011;4763;48.370;10.874;2023-07-28T05:19:09;6.03;;;3.53;;
9449;SDS011;4763;48.370;10.874;2023-07-28T05:21:36;4.47;;;3.50;;
9449;SDS011;4763;48.370;10.874;2023-07-28T05:24:03;4.70;;;3.10;;
9449;SDS011;4763;48.370;10.874;2023-07-28T05:26:31;4.20;;;2.40;;
9449;SDS011;4763;48.370;10.874;2023-07-28T05:29:00;3.73;;;2.73;;
9449;SDS011;4763;48.370;10.874;2023-07-28T05:31:28;6.00;;;3.00;;
9449;SDS011;4763;48.370;10.874;2023-07-28T05:33:55;3.17;;;2.70;;
9449;SDS011;4763;48.370;10.874;2023-07-28T05:36:23;4.00;;;2.90;;
9449;SDS011;4763;48.370;10.874;2023-07-28T05:38:49;4.37;;;3.10;;
9449;SDS011;4763;48.370;10.874;2023-07-28T05:41:18;4.53;;;2.40;;
9449;SDS011;4763;48.370;10.874;2023-07-28T05:43:45;3.27;;;2.47;;
9449;SDS011;4763;48.370;10.874;2023-07-28T05:46:13;3.50;;;2.67;;
9449;SDS011;4763;48.370;10.874;2023-07-28T05:48:40;2.50;;;2.20;;
9449;SDS011;4763;48.370;10.874;2023-07-28T05:51:07;5.23;;;2.23;;
9449;SDS011;4763;48.370;10.874;2023-07-28T05:53:34;3.07;;;2.40;;
9449;SDS011;4763;48.370;10.874;2023-07-28T05:56:00;3.53;;;2.57;;
9449;SDS011;4763;48.370;10.874;2023-07-28T05:58:27;3.77;;;2.40;;
9449;SDS011;4763;48.370;10.874;2023-07-28T06:00:54;2.90;;;2.30;;
9449;SDS011;4763;48.370;10.874;2023-07-28T06:03:22;2.77;;;2.40;;
9449;SDS011;4763;48.370;10.874;2023-07-28T06:05:49;2.60;;;2.30;;
9449;SDS011;4763;48.370;10.874;2023-07-28T06:08:16;3.63;;;2.37;;
9449;SDS011;4763;48.370;10.874;2023-07-28T06:10:45;4.60;;;2.40;;
9449;SDS011;4763;48.370;10.874;2023-07-28T06:13:12;2.93;;;2.20;;
9449;SDS011;4763;48.370;10.874;2023-07-28T06:15:39;3.43;;;2.33;;
9449;SDS011;4763;48.370;10.874;2023-07-28T06:18:06;4.13;;;2.20;;
9449;SDS011;4763;48.370;10.874;2023-07-28T06:20:34;2.93;;;2.00;;
9449;SDS011;4763;48.370;10.874;2023-07-28T06:23:01;3.63;;;2.60;;
9449;SDS011;4763;48.370;10.874;2023-07-28T06:25:29;2.90;;;2.57;;
9449;SDS011;4763;48.370;10.874;2023-07-28T06:27:55;7.07;;;2.30;;
9449;SDS011;4763;48.370;10.874;2023-07-28T06:30:23;3.67;;;2.40;;
9449;SDS011;4763;48.370;10.874;2023-07-28T06:32:51;2.37;;;2.17;;
9449;SDS011;4763;48.370;10.874;2023-07-28T06:35:17;2.37;;;2.10;;
9449;SDS011;4763;48.370;10.874;2023-07-28T06:37:46;2.03;;;1.83;;
9449;SDS011;4763;48.370;10.874;2023-07-28T06:40:12;6.40;;;2.33;;
9449;SDS011;4763;48.370;10.874;2023-07-28T06:42:40;3.57;;;2.23;;
9449;SDS011;4763;48.370;10.874;2023-07-28T06:45:08;2.27;;;2.07;;
9449;SDS011;4763;48.370;10.874;2023-07-28T06:47:35;3.08;;;2.03;;
9449;SDS011;4763;48.370;10.874;2023-07-28T06:50:02;5.35;;;2.03;;
9449;SDS011;4763;48.370;10.874;2023-07-28T06:52:30;4.45;;;2.67;;
9449;SDS011;4763;48.370;10.874;2023-07-28T06:54:58;2.22;;;2.03;;
9449;SDS011;4763;48.370;10.874;2023-07-28T06:57:25;2.40;;;1.88;;
9449;SDS011;4763;48.370;10.874;2023-07-28T06:59:52;3.25;;;2.00;;
9449;SDS011;4763;48.370;10.874;2023-07-28T07:02:18;3.05;;;2.10;;
9449;SDS011;4763;48.370;10.874;2023-07-28T07:04:45;3.72;;;2.17;;
9449;SDS011;4763;48.370;10.874;2023-07-28T07:07:12;3.50;;;1.85;;
9449;SDS011;4763;48.370;10.874;2023-07-28T07:09:39;1.75;;;1.50;;
9449;SDS011;4763;48.370;10.874;2023-07-28T07:12:08;3.80;;;1.92;;
9449;SDS011;4763;48.370;10.874;2023-07-28T07:14:35;2.60;;;2.00;;
9449;SDS011;4763;48.370;10.874;2023-07-28T07:17:01;4.07;;;2.08;;
9449;SDS011;4763;48.370;10.874;2023-07-28T07:19:28;2.45;;;1.90;;
9449;SDS011;4763;48.370;10.874;2023-07-28T07:21:55;2.08;;;1.88;;
9449;SDS011;4763;48.370;10.874;2023-07-28T07:24:22;2.28;;;2.00;;
9449;SDS011;4763;48.370;10.874;2023-07-28T07:26:49;2.00;;;1.80;;
9449;SDS011;4763;48.370;10.874;2023-07-28T07:29:18;2.70;;;2.00;;
9449;SDS011;4763;48.370;10.874;2023-07-28T07:31:45;2.50;;;2.00;;
9449;SDS011;4763;48.370;10.874;2023-07-28T07:34:11;2.30;;;2.05;;
9449;SDS011;4763;48.370;10.874;2023-07-28T07:36:38;2.78;;;2.05;;
9449;SDS011;4763;48.370;10.874;2023-07-28T07:39:05;2.00;;;1.80;;
9449;SDS011;4763;48.370;10.874;2023-07-28T07:41:32;3.28;;;2.00;;
9449;SDS011;4763;48.370;10.874;2023-07-28T07:43:59;6.40;;;2.42;;
9449;SDS011;4763;48.370;10.874;2023-07-28T07:46:27;7.15;;;2.30;;
9449;SDS011;4763;48.370;10.874;2023-07-28T07:48:54;2.42;;;2.10;;
9449;SDS011;4763;48.370;10.874;2023-07-28T07:51:22;3.20;;;2.00;;
9449;SDS011;4763;48.370;10.874;2023-07-28T07:53:49;3.20;;;2.25;;
9449;SDS011;4763;48.370;10.874;2023-07-28T07:56:16;3.83;;;2.28;;
9449;SDS011;4763;48.370;10.874;2023-07-28T07:58:43;2.70;;;2.00;;
9449;SDS011;4763;48.370;10.874;2023-07-28T08:01:10;4.00;;;2.60;;
9449;SDS011;4763;48.370;10.874;2023-07-28T08:03:38;2.63;;;1.88;;
9449;SDS011;4763;48.370;10.874;2023-07-28T08:06:05;6.03;;;2.75;;
9449;SDS011;4763;48.370;10.874;2023-07-28T08:08:36;3.00;;;2.00;;
9449;SDS011;4763;48.370;10.874;2023-07-28T08:11:03;6.13;;;2.30;;
9449;SDS011;4763;48.370;10.874;2023-07-28T08:13:32;4.47;;;2.83;;
9449;SDS011;4763;48.370;10.874;2023-07-28T08:15:59;4.40;;;2.42;;
9449;SDS011;4763;48.370;10.874;2023-07-28T08:18:26;5.40;;;2.40;;
9449;SDS011;4763;48.370;10.874;2023-07-28T08:20:54;3.53;;;2.20;;
9449;SDS011;4763;48.370;10.874;2023-07-28T08:23:21;3.58;;;2.22;;
9449;SDS011;4763;48.370;10.874;2023-07-28T08:25:47;2.85;;;2.00;;
9449;SDS011;4763;48.370;10.874;2023-07-28T08:28:15;2.08;;;1.70;;
9449;SDS011;4763;48.370;10.874;2023-07-28T08:30:42;4.07;;;2.03;;
9449;SDS011;4763;48.370;10.874;2023-07-28T08:33:09;1.95;;;1.70;;
9449;SDS011;4763;48.370;10.874;2023-07-28T08:35:35;3.60;;;1.80;;
9449;SDS011;4763;48.370;10.874;2023-07-28T08:38:03;3.28;;;2.03;;
9449;SDS011;4763;48.370;10.874;2023-07-28T08:40:30;4.88;;;2.00;;
9449;SDS011;4763;48.370;10.874;2023-07-28T08:42:59;2.58;;;2.20;;
9449;SDS011;4763;48.370;10.874;2023-07-28T08:45:28;2.00;;;1.83;;
9449;SDS011;4763;48.370;10.874;2023-07-28T08:47:55;2.00;;;1.80;;
9449;SDS011;4763;48.370;10.874;2023-07-28T08:50:22;2.70;;;1.98;;
9449;SDS011;4763;48.370;10.874;2023-07-28T08:52:49;1.67;;;1.55;;
9449;SDS011;4763;48.370;10.874;2023-07-28T08:55:18;6.72;;;2.70;;
9449;SDS011;4763;48.370;10.874;2023-07-28T08:57:44;5.40;;;2.10;;
9449;SDS011;4763;48.370;10.874;2023-07-28T09:00:11;3.67;;;2.30;;
9449;SDS011;4763;48.370;10.874;2023-07-28T09:02:39;3.33;;;1.92;;
9449;SDS011;4763;48.370;10.874;2023-07-28T09:05:07;3.35;;;1.85;;
9449;SDS011;4763;48.370;10.874;2023-07-28T09:07:45;5.47;;;2.20;;
9449;SDS011;4763;48.370;10.874;2023-07-28T09:10:13;2.47;;;2.08;;
9449;SDS011;4763;48.370;10.874;2023-07-28T09:12:46;2.90;;;2.17;;
9449;SDS011;4763;48.370;10.874;2023-07-28T09:15:15;2.65;;;2.08;;
9449;SDS011;4763;48.370;10.874;2023-07-28T09:17:42;4.32;;;2.45;;
9449;SDS011;4763;48.370;10.874;2023-07-28T09:20:12;3.92;;;2.10;;
9449;SDS011;4763;48.370;10.874;2023-07-28T09:22:41;2.72;;;2.17;;
9449;SDS011;4763;48.370;10.874;2023-07-28T09:25:11;2.47;;;1.98;;
9449;SDS011;4763;48.370;10.874;2023-07-28T09:27:39;2.42;;;2.15;;
9449;SDS011;4763;48.370;10.874;2023-07-28T09:30:08;4.30;;;2.05;;
9449;SDS011;4763;48.370;10.874;2023-07-28T09:32:35;3.17;;;2.08;;
9449;SDS011;4763;48.370;10.874;2023-07-28T09:35:07;2.72;;;1.88;;
9449;SDS011;4763;48.370;10.874;2023-07-28T09:37:36;2.58;;;1.95;;
9449;SDS011;4763;48.370;10.874;2023-07-28T09:40:06;5.80;;;1.83;;
9449;SDS011;4763;48.370;10.874;2023-07-28T09:42:37;2.58;;;1.73;;
9449;SDS011;4763;48.370;10.874;2023-07-28T09:45:08;2.05;;;1.67;;
9449;SDS011;4763;48.370;10.874;2023-07-28T09:47:36;2.53;;;1.83;;
9449;SDS011;4763;48.370;10.874;2023-07-28T09:50:05;4.28;;;2.08;;
9449;SDS011;4763;48.370;10.874;2023-07-28T09:52:34;2.20;;;2.00;;
9449;SDS011;4763;48.370;10.874;2023-07-28T09:55:05;3.95;;;2.00;;
9449;SDS011;4763;48.370;10.874;2023-07-28T09:57:35;5.50;;;2.00;;
9449;SDS011;4763;48.370;10.874;2023-07-28T10:00:10;2.88;;;1.60;;
9449;SDS011;4763;48.370;10.874;2023-07-28T10:02:39;2.38;;;2.10;;
9449;SDS011;4763;48.370;10.874;2023-07-28T10:05:08;2.58;;;2.13;;
9449;SDS011;4763;48.370;10.874;2023-07-28T10:07:36;2.72;;;1.90;;
9449;SDS011;4763;48.370;10.874;2023-07-28T10:10:05;1.67;;;1.52;;
9449;SDS011;4763;48.370;10.874;2023-07-28T10:12:40;3.97;;;2.15;;
9449;SDS011;4763;48.370;10.874;2023-07-28T10:15:28;8.25;;;2.10;;
9449;SDS011;4763;48.370;10.874;2023-07-28T10:18:54;2.63;;;2.15;;
9449;SDS011;4763;48.370;10.874;2023-07-28T10:21:43;2.13;;;1.83;;
9449;SDS011;4763;48.370;10.874;2023-07-28T10:24:10;3.67;;;1.80;;
9449;SDS011;4763;48.370;10.874;2023-07-28T10:26:40;4.07;;;2.30;;
9449;SDS011;4763;48.370;10.874;2023-07-28T10:29:11;3.83;;;2.72;;
9449;SDS011;4763;48.370;10.874;2023-07-28T10:34:49;2.40;;;1.70;;
9449;SDS011;4763;48.370;10.874;2023-07-28T10:37:49;1.90;;;1.60;;
9449;SDS011;4763;48.370;10.874;2023-07-28T10:40:22;3.70;;;2.22;;
9449;SDS011;4763;48.370;10.874;2023-07-28T10:43:18;2.17;;;1.90;;
9449;SDS011;4763;48.370;10.874;2023-07-28T10:45:49;3.45;;;2.10;;
9449;SDS011;4763;48.370;10.874;2023-07-28T10:48:16;2.38;;;1.70;;
9449;SDS011;4763;48.370;10.874;2023-07-28T10:50:44;2.75;;;1.90;;
9449;SDS011;4763;48.370;10.874;2023-07-28T10:53:15;2.65;;;2.30;;
9449;SDS011;4763;48.370;10.874;2023-07-28T10:55:42;2.97;;;2.42;;
9449;SDS011;4763;48.370;10.874;2023-07-28T10:58:09;5.63;;;1.90;;
9449;SDS011;4763;48.370;10.874;2023-07-28T11:00:36;2.50;;;1.88;;
9449;SDS011;4763;48.370;10.874;2023-07-28T11:03:02;4.30;;;2.10;;
9449;SDS011;4763;48.370;10.874;2023-07-28T11:05:29;2.38;;;1.98;;
9449;SDS011;4763;48.370;10.874;2023-07-28T11:07:58;4.38;;;2.03;;
9449;SDS011;4763;48.370;10.874;2023-07-28T11:10:27;3.95;;;2.95;;
9449;SDS011;4763;48.370;10.874;2023-07-28T11:12:58;3.63;;;1.92;;
9449;SDS011;4763;48.370;10.874;2023-07-28T11:15:26;5.50;;;2.10;;
9449;SDS011;4763;48.370;10.874;2023-07-28T11:17:53;3.75;;;2.10;;
9449;SDS011;4763;48.370;10.874;2023-07-28T11:20:21;2.40;;;1.98;;
9449;SDS011;4763;48.370;10.874;2023-07-28T11:22:52;2.05;;;1.83;;
9449;SDS011;4763;48.370;10.874;2023-07-28T11:25:21;6.68;;;2.45;;
9449;SDS011;4763;48.370;10.874;2023-07-28T11:27:49;2.08;;;1.80;;
9449;SDS011;4763;48.370;10.874;2023-07-28T11:30:16;2.95;;;2.30;;
9449;SDS011;4763;48.370;10.874;2023-07-28T11:32:45;4.93;;;2.42;;
9449;SDS011;4763;48.370;10.874;2023-07-28T11:35:14;4.15;;;2.50;;
9449;SDS011;4763;48.370;10.874;2023-07-28T11:37:42;3.88;;;2.03;;
9449;SDS011;4763;48.370;10.874;2023-07-28T11:40:14;3.97;;;2.25;;
9449;SDS011;4763;48.370;10.874;2023-07-28T11:42:44;2.58;;;2.10;;
9449;SDS011;4763;48.370;10.874;2023-07-28T11:45:13;2.78;;;2.22;;
9449;SDS011;4763;48.370;10.874;2023-07-28T11:47:50;2.15;;;1.65;;
9449;SDS011;4763;48.370;10.874;2023-07-28T11:50:23;2.45;;;2.15;;
9449;SDS011;4763;48.370;10.874;2023-07-28T11:52:51;5.85;;;1.92;;
9449;SDS011;4763;48.370;10.874;2023-07-28T11:55:18;2.80;;;1.95;;
9449;SDS011;4763;48.370;10.874;2023-07-28T11:57:48;3.20;;;2.10;;
9449;SDS011;4763;48.370;10.874;2023-07-28T12:00:15;2.00;;;1.80;;
9449;SDS011;4763;48.370;10.874;2023-07-28T12:02:43;2.10;;;1.90;;
9449;SDS011;4763;48.370;10.874;2023-07-28T12:05:14;2.63;;;1.98;;
9449;SDS011;4763;48.370;10.874;2023-07-28T12:07:46;2.22;;;1.95;;
9449;SDS011;4763;48.370;10.874;2023-07-28T12:10:13;4.85;;;1.85;;
9449;SDS011;4763;48.370;10.874;2023-07-28T12:12:41;3.65;;;2.30;;
9449;SDS011;4763;48.370;10.874;2023-07-28T12:15:20;2.22;;;1.80;;
9449;SDS011;4763;48.370;10.874;2023-07-28T12:18:04;3.15;;;1.90;;
9449;SDS011;4763;48.370;10.874;2023-07-28T12:20:33;2.53;;;1.88;;
9449;SDS011;4763;48.370;10.874;2023-07-28T12:23:00;2.72;;;1.80;;
9449;SDS011;4763;48.370;10.874;2023-07-28T12:25:27;2.80;;;2.17;;
9449;SDS011;4763;48.370;10.874;2023-07-28T12:27:55;4.70;;;2.10;;
9449;SDS011;4763;48.370;10.874;2023-07-28T12:30:23;4.68;;;2.20;;
9449;SDS011;4763;48.370;10.874;2023-07-28T12:32:50;3.20;;;2.15;;
9449;SDS011;4763;48.370;10.874;2023-07-28T12:35:17;3.22;;;2.15;;
9449;SDS011;4763;48.370;10.874;2023-07-28T12:37:46;4.35;;;2.03;;
9449;SDS011;4763;48.370;10.874;2023-07-28T12:40:12;3.55;;;2.70;;
9449;SDS011;4763;48.370;10.874;2023-07-28T12:42:39;2.42;;;2.22;;
9449;SDS011;4763;48.370;10.874;2023-07-28T12:45:06;2.50;;;2.13;;
9449;SDS011;4763;48.370;10.874;2023-07-28T12:47:35;3.15;;;2.08;;
9449;SDS011;4763;48.370;10.874;2023-07-28T12:50:02;2.47;;;2.00;;
9449;SDS011;4763;48.370;10.874;2023-07-28T12:52:31;1.98;;;1.70;;
9449;SDS011;4763;48.370;10.874;2023-07-28T12:54:58;2.88;;;2.22;;
9449;SDS011;4763;48.370;10.874;2023-07-28T12:57:25;3.10;;;2.40;;
9449;SDS011;4763;48.370;10.874;2023-07-28T12:59:51;4.20;;;2.63;;
9449;SDS011;4763;48.370;10.874;2023-07-28T13:02:18;6.18;;;2.40;;
9449;SDS011;4763;48.370;10.874;2023-07-28T13:04:46;3.63;;;2.28;;
9449;SDS011;4763;48.370;10.874;2023-07-28T13:07:13;3.53;;;2.40;;
9449;SDS011;4763;48.370;10.874;2023-07-28T13:09:40;2.42;;;1.95;;
9449;SDS011;4763;48.370;10.874;2023-07-28T13:12:07;2.33;;;1.90;;
9449;SDS011;4763;48.370;10.874;2023-07-28T13:14:34;2.65;;;2.00;;
9449;SDS011;4763;48.370;10.874;2023-07-28T13:17:01;3.08;;;2.03;;
9449;SDS011;4763;48.370;10.874;2023-07-28T13:19:28;2.90;;;2.05;;
9449;SDS011;4763;48.370;10.874;2023-07-28T13:21:56;2.80;;;2.40;;
9449;SDS011;4763;48.370;10.874;2023-07-28T13:24:23;3.22;;;2.45;;
9449;SDS011;4763;48.370;10.874;2023-07-28T13:26:50;4.75;;;2.40;;
9449;SDS011;4763;48.370;10.874;2023-07-28T13:29:17;3.03;;;2.00;;
9449;SDS011;4763;48.370;10.874;2023-07-28T13:31:44;3.92;;;2.67;;
9449;SDS011;4763;48.370;10.874;2023-07-28T13:34:11;2.70;;;1.90;;
9449;SDS011;4763;48.370;10.874;2023-07-28T13:36:37;3.78;;;2.22;;
9449;SDS011;4763;48.370;10.874;2023-07-28T13:39:06;2.75;;;1.85;;
9449;SDS011;4763;48.370;10.874;2023-07-28T13:41:32;3.15;;;2.17;;
9449;SDS011;4763;48.370;10.874;2023-07-28T13:43:59;4.28;;;2.50;;
9449;SDS011;4763;48.370;10.874;2023-07-28T13:46:26;3.97;;;2.10;;
9449;SDS011;4763;48.370;10.874;2023-07-28T13:48:53;3.40;;;2.20;;
9449;SDS011;4763;48.370;10.874;2023-07-28T13:51:20;2.35;;;1.90;;
9449;SDS011;4763;48.370;10.874;2023-07-28T13:53:47;5.93;;;2.67;;
9449;SDS011;4763;48.370;10.874;2023-07-28T13:56:15;2.55;;;2.05;;
9449;SDS011;4763;48.370;10.874;2023-07-28T13:58:42;3.88;;;2.30;;
9449;SDS011;4763;48.370;10.874;2023-07-28T14:01:09;3.28;;;2.10;;
9449;SDS011;4763;48.370;10.874;2023-07-28T14:03:36;2.33;;;2.08;;
9449;SDS011;4763;48.370;10.874;2023-07-28T14:06:03;2.28;;;2.08;;
9449;SDS011;4763;48.370;10.874;2023-07-28T14:08:30;5.30;;;2.15;;
9449;SDS011;4763;48.370;10.874;2023-07-28T14:10:57;2.72;;;2.25;;
9449;SDS011;4763;48.370;10.874;2023-07-28T14:13:25;2.80;;;2.50;;
9449;SDS011;4763;48.370;10.874;2023-07-28T14:15:52;3.90;;;2.22;;
9449;SDS011;4763;48.370;10.874;2023-07-28T14:18:20;2.63;;;2.38;;
9449;SDS011;4763;48.370;10.874;2023-07-28T14:20:47;2.50;;;2.30;;
9449;SDS011;4763;48.370;10.874;2023-07-28T14:23:23;3.03;;;2.10;;
9449;SDS011;4763;48.370;10.874;2023-07-28T14:25:51;4.05;;;2.20;;
9449;SDS011;4763;48.370;10.874;2023-07-28T14:28:19;3.05;;;1.77;;
9449;SDS011;4763;48.370;10.874;2023-07-28T14:30:48;2.72;;;2.45;;
9449;SDS011;4763;48.370;10.874;2023-07-28T14:33:16;5.05;;;2.25;;
9449;SDS011;4763;48.370;10.874;2023-07-28T14:35:44;7.05;;;2.50;;
9449;SDS011;4763;48.370;10.874;2023-07-28T14:38:11;3.25;;;2.17;;
9449;SDS011;4763;48.370;10.874;2023-07-28T14:40:38;3.33;;;2.28;;
9449;SDS011;4763;48.370;10.874;2023-07-28T14:43:05;3.70;;;2.30;;
9449;SDS011;4763;48.370;10.874;2023-07-28T14:45:32;3.70;;;2.38;;
9449;SDS011;4763;48.370;10.874;2023-07-28T14:48:00;3.72;;;2.28;;
9449;SDS011;4763;48.370;10.874;2023-07-28T14:50:27;2.85;;;2.45;;
9449;SDS011;4763;48.370;10.874;2023-07-28T14:52:57;3.35;;;2.22;;
9449;SDS011;4763;48.370;10.874;2023-07-28T14:55:24;3.15;;;2.25;;
9449;SDS011;4763;48.370;10.874;2023-07-28T14:57:51;3.03;;;2.28;;
9449;SDS011;4763;48.370;10.874;2023-07-28T15:00:18;5.40;;;2.22;;
9449;SDS011;4763;48.370;10.874;2023-07-28T15:02:45;2.60;;;2.28;;
9449;SDS011;4763;48.370;10.874;2023-07-28T15:05:13;3.25;;;2.40;;
9449;SDS011;4763;48.370;10.874;2023-07-28T15:07:39;2.63;;;2.33;;
9449;SDS011;4763;48.370;10.874;2023-07-28T15:10:07;3.45;;;2.47;;